createdAt,value
2018-09-13T00:05:52.197Z,99946.30
2018-09-13T00:11:56.868Z,99958.57
2018-09-13T00:18:01.618Z,99945.11
2018-09-13T00:24:06.405Z,99942.10
2018-09-13T00:30:12.082Z,99941.22
2018-09-13T00:36:16.984Z,99928.02
2018-09-13T00:42:22.105Z,99922.47
2018-09-13T00:48:27.007Z,99926.50
2018-09-13T00:54:31.882Z,99922.14
2018-09-13T01:00:36.635Z,99922.01
2018-09-13T01:06:43.101Z,99936.13
2018-09-13T01:12:47.864Z,99933.63
2018-09-13T01:18:53.035Z,99943.98
2018-09-13T01:24:58.278Z,99937.75
2018-09-13T01:31:03.246Z,99933.92
2018-09-13T01:37:08.016Z,99937.42
2018-09-13T01:43:13.218Z,99926.30
2018-09-13T01:49:18.021Z,99929.80
2018-09-13T01:55:22.978Z,99915.66
2018-09-13T02:01:30.518Z,99896.11
2018-09-13T02:07:35.379Z,99897.68
2018-09-13T02:13:40.065Z,99893.56
2018-09-13T02:19:45.000Z,99889.85
2018-09-13T02:25:49.770Z,99893.73
2018-09-13T02:31:54.585Z,99887.53
2018-09-13T02:37:59.336Z,99895.64
2018-09-13T02:44:04.689Z,99890.20
2018-09-13T02:50:09.924Z,99893.63
2018-09-13T02:56:15.059Z,99885.93
2018-09-13T03:02:19.968Z,99869.44
2018-09-13T03:08:24.814Z,99869.66
2018-09-13T03:14:29.707Z,99863.00
2018-09-13T03:20:34.728Z,99851.00
2018-09-13T03:26:39.791Z,99863.00
2018-09-13T03:32:45.636Z,99867.93
2018-09-13T03:38:50.385Z,99858.00
2018-09-13T03:44:56.057Z,99850.58
2018-09-13T03:51:00.859Z,99848.62
2018-09-13T03:57:05.786Z,99855.77
2018-09-13T04:03:11.108Z,99859.24
2018-09-13T04:09:15.893Z,99858.64
2018-09-13T04:15:20.674Z,99852.01
2018-09-13T04:21:25.507Z,99843.92
2018-09-13T04:27:30.278Z,99838.69
2018-09-13T04:33:35.152Z,99834.86
2018-09-13T04:39:40.095Z,99832.62
2018-09-13T04:45:45.455Z,99830.73
2018-09-13T04:51:50.645Z,99816.62
2018-09-13T04:57:55.449Z,99827.57
2018-09-13T05:04:00.265Z,99814.69
2018-09-13T05:10:05.328Z,99821.04
2018-09-13T05:16:11.220Z,99804.60
2018-09-13T05:22:16.127Z,99789.68
2018-09-13T05:28:20.865Z,99799.64
2018-09-13T05:34:26.013Z,99811.41
2018-09-13T05:40:31.100Z,99805.57
2018-09-13T05:46:36.000Z,99819.63
2018-09-13T05:52:41.182Z,99830.73
2018-09-13T05:58:46.512Z,99842.38
2018-09-13T06:04:51.471Z,99849.60
2018-09-13T06:10:56.306Z,99844.14
2018-09-13T06:17:01.121Z,99842.27
2018-09-13T06:23:05.944Z,99841.20
2018-09-13T06:29:12.662Z,99851.47
2018-09-13T06:35:17.535Z,99855.48
2018-09-13T06:41:22.376Z,99859.13
2018-09-13T06:47:27.132Z,99864.24
2018-09-13T06:53:31.884Z,99853.16
2018-09-13T06:59:36.720Z,99861.98
2018-09-13T07:05:42.059Z,99856.63
2018-09-13T07:11:47.207Z,99859.05
2018-09-13T07:17:51.913Z,99861.92
2018-09-13T07:23:57.123Z,99862.52
2018-09-13T07:30:01.876Z,99864.50
2018-09-13T07:36:06.999Z,99864.19
2018-09-13T07:42:13.635Z,99868.59
2018-09-13T07:48:18.611Z,99876.73
2018-09-13T07:54:23.315Z,99880.42
2018-09-13T08:00:28.210Z,99885.88
2018-09-13T08:06:33.102Z,99890.09
2018-09-13T08:12:39.269Z,99888.91
2018-09-13T08:18:45.607Z,99894.75
2018-09-13T08:24:50.551Z,99892.48
2018-09-13T08:30:56.091Z,99892.70
2018-09-13T08:37:01.075Z,99883.73
2018-09-13T08:43:06.201Z,99897.73
2018-09-13T08:49:11.367Z,99897.03
2018-09-13T08:55:16.279Z,99902.51
2018-09-13T09:01:21.186Z,99908.04
2018-09-13T09:07:25.904Z,99915.56
2018-09-13T09:13:30.749Z,99908.38
2018-09-13T09:19:35.663Z,99905.70
2018-09-13T09:25:41.067Z,99908.67
2018-09-13T09:31:46.595Z,99905.71
2018-09-13T09:37:51.633Z,99899.94
2018-09-13T09:43:56.597Z,99900.37
2018-09-13T09:50:01.375Z,99911.58
2018-09-13T09:56:06.268Z,99905.81
2018-09-13T10:02:17.081Z,99902.30
2018-09-13T10:08:22.302Z,99900.86
2018-09-13T10:14:27.070Z,99902.70
2018-09-13T10:20:37.136Z,99903.64
2018-09-13T10:26:48.528Z,99902.77
2018-09-13T10:32:58.442Z,99907.03
2018-09-13T10:39:08.686Z,99906.12
2018-09-13T10:45:19.144Z,99914.31
2018-09-13T10:51:29.151Z,99909.37
2018-09-13T10:57:39.124Z,99906.73
2018-09-13T11:03:44.574Z,99898.19
2018-09-13T11:09:49.576Z,99893.34
2018-09-13T11:15:54.352Z,99890.34
2018-09-13T11:21:59.225Z,99886.50
2018-09-13T11:28:04.128Z,99884.00
2018-09-13T11:34:08.940Z,99881.66
2018-09-13T11:40:14.790Z,99881.16
2018-09-13T11:46:19.765Z,99880.48
2018-09-13T11:52:25.057Z,99878.40
2018-09-13T11:58:29.781Z,99877.48
2018-09-13T12:04:34.587Z,99869.53
2018-09-13T12:10:39.496Z,99866.77
2018-09-13T12:16:44.881Z,99860.09
2018-09-13T12:22:49.690Z,99856.34
2018-09-13T12:28:54.518Z,99855.09
2018-09-13T12:34:59.536Z,99853.69
2018-09-13T12:41:04.487Z,99860.27
2018-09-13T12:47:09.912Z,99847.80
2018-09-13T12:53:15.049Z,99851.20
2018-09-13T12:59:19.879Z,99848.00
2018-09-13T13:05:24.648Z,99848.11
2018-09-13T13:11:29.542Z,99840.87
2018-09-13T13:17:34.363Z,99847.34
2018-09-13T13:23:39.270Z,99856.62
2018-09-13T13:29:45.205Z,99849.54
2018-09-13T13:35:50.140Z,99853.59
2018-09-13T13:41:54.943Z,99848.98
2018-09-13T13:47:59.799Z,99836.66
2018-09-13T13:54:04.565Z,99819.80
2018-09-13T14:00:11.033Z,99826.89
2018-09-13T14:06:16.212Z,99820.27
2018-09-13T14:12:21.173Z,99823.66
2018-09-13T14:18:26.368Z,99826.94
2018-09-13T14:24:31.082Z,99832.83
2018-09-13T14:30:35.822Z,99838.98
2018-09-13T14:36:41.585Z,99841.45
2018-09-13T14:42:46.583Z,99844.11
2018-09-13T14:48:51.860Z,99838.69
2018-09-13T14:54:56.512Z,99818.11
2018-09-13T15:01:01.611Z,99816.45
2018-09-13T15:07:06.394Z,99806.83
2018-09-13T15:13:13.203Z,99798.09
2018-09-13T15:19:18.490Z,99802.38
2018-09-13T15:25:23.336Z,99812.91
2018-09-13T15:31:28.115Z,99813.77
2018-09-13T15:37:33.029Z,99811.08
2018-09-13T15:43:37.941Z,99808.80
2018-09-13T15:49:43.391Z,99811.94
2018-09-13T15:55:48.227Z,99817.02
2018-09-13T16:01:53.178Z,99817.80
2018-09-13T16:07:58.010Z,99821.46
2018-09-13T16:14:02.855Z,99818.20
2018-09-13T16:20:07.872Z,99811.58
2018-09-13T16:26:12.978Z,99810.49
2018-09-13T16:32:21.569Z,99803.43
2018-09-13T16:39:33.910Z,99800.23
2018-09-13T16:45:38.967Z,99811.05
2018-09-13T16:51:44.942Z,99810.14
2018-09-13T16:57:49.969Z,99812.88
2018-09-13T17:03:54.861Z,99819.02
2018-09-13T17:10:00.018Z,99833.13
2018-09-13T17:16:04.820Z,99836.22
2018-09-13T17:22:09.758Z,99838.05
2018-09-13T17:28:15.332Z,99835.27
2018-09-13T17:34:20.146Z,99843.64
2018-09-13T17:40:25.140Z,99833.81
2018-09-13T17:46:30.315Z,99836.67
2018-09-13T17:52:35.101Z,99835.43
2018-09-13T17:58:40.641Z,99844.23
2018-09-13T18:04:46.014Z,99839.45
2018-09-13T18:10:50.805Z,99841.84
2018-09-13T18:16:55.790Z,99842.23
2018-09-13T18:23:00.659Z,99845.14
2018-09-13T18:29:05.700Z,99841.80
2018-09-13T18:35:10.533Z,99852.59
2018-09-13T18:41:15.759Z,99851.77
2018-09-13T18:47:20.548Z,99858.52
2018-09-13T18:53:25.444Z,99858.71
2018-09-13T18:59:30.229Z,99861.89
2018-09-13T19:05:35.057Z,99863.59
2018-09-13T19:11:40.786Z,99862.72
2018-09-13T19:17:45.921Z,99857.09
2018-09-13T19:23:50.677Z,99856.72
2018-09-13T19:29:55.370Z,99864.03
2018-09-13T19:36:00.047Z,99863.02
2018-09-13T19:42:04.823Z,99857.21
2018-09-13T19:48:10.050Z,99861.26
2018-09-13T19:54:15.461Z,99877.72
2018-09-13T20:00:20.405Z,99876.31
2018-09-13T20:06:25.086Z,99876.81
2018-09-13T20:12:29.907Z,99872.88
2018-09-13T20:18:34.760Z,99879.93
2018-09-13T20:24:39.870Z,99874.87
2018-09-13T20:30:45.122Z,99871.20
2018-09-13T20:36:50.095Z,99871.20
2018-09-13T20:42:55.337Z,99871.72
2018-09-13T20:49:00.245Z,99874.95
2018-09-13T20:55:05.580Z,99874.77
2018-09-13T21:01:11.057Z,99879.30
2018-09-13T21:07:16.264Z,99879.11
2018-09-13T21:13:21.145Z,99885.97
2018-09-13T21:19:25.812Z,99883.67
2018-09-13T21:25:30.518Z,99881.09
2018-09-13T21:31:35.296Z,99879.13
2018-09-13T21:37:40.319Z,99878.00
2018-09-13T21:43:45.004Z,99876.02
2018-09-13T21:49:49.807Z,99880.87
2018-09-13T21:55:54.735Z,99873.84
2018-09-13T22:01:59.587Z,99883.04
2018-09-13T22:08:04.267Z,99876.54
2018-09-13T22:14:09.327Z,99889.08
2018-09-13T22:20:14.093Z,99883.67
2018-09-13T22:26:18.833Z,99881.30
2018-09-13T22:32:23.611Z,99887.11
2018-09-13T22:38:28.376Z,99894.55
2018-09-13T22:44:38.413Z,99890.42
2018-09-13T22:50:44.047Z,99887.39
2018-09-13T22:56:48.788Z,99889.41
2018-09-13T23:02:53.596Z,99885.36
2018-09-13T23:08:58.478Z,99896.56
2018-09-13T23:15:03.292Z,99894.80
2018-09-13T23:21:08.311Z,99905.39
2018-09-13T23:27:13.281Z,99900.84
2018-09-13T23:33:18.040Z,99906.42
2018-09-13T23:39:23.346Z,99906.31
2018-09-13T23:45:28.424Z,99902.39
2018-09-13T23:51:33.628Z,99911.51
2018-09-13T23:57:38.845Z,99906.42
